Time;durP1;ratioP1;P1;durP2;ratioP2;P2;SDS_P1;SDS_P2;PMS_P1;PMS_P2;Temp;Humidity;BMP_temperature;BMP_pressure;BME280_temperature;BME280_humidity;BME280_pressure;Samples;Min_cycle;Max_cycle;Signal;HPM_P1;HPM_P2
2021/06/04 00:01:38;;;;;;;7.20;4.40;;;13.70;99.90;;;;;;4158803;28;20021;-62
2021/06/04 00:03:40;;;;;;;16.37;5.90;;;13.70;99.90;;;;;;4157560;28;20045;-63
2021/06/04 00:05:46;;;;;;;11.63;5.53;;;13.70;99.90;;;;;;4158682;28;20037;-64
2021/06/04 00:07:47;;;;;;;13.57;4.53;;;13.70;99.90;;;;;;4157777;28;20037;-68
2021/06/04 00:09:48;;;;;;;9.63;5.30;;;13.60;99.90;;;;;;4158459;28;20029;-63
2021/06/04 00:11:57;;;;;;;7.93;4.77;;;13.60;99.90;;;;;;4157250;28;20034;-65
2021/06/04 00:14:06;;;;;;;5.60;4.80;;;13.60;99.90;;;;;;4157040;28;20045;-62
2021/06/04 00:16:15;;;;;;;8.70;5.10;;;13.50;99.90;;;;;;4157673;28;20021;-64
2021/06/04 00:18:16;;;;;;;6.80;4.60;;;13.50;99.90;;;;;;4154267;28;20045;-66
2021/06/04 00:20:24;;;;;;;9.43;5.40;;;13.40;99.90;;;;;;4157728;28;20579;-64
2021/06/04 00:22:27;;;;;;;10.87;5.27;;;13.40;99.90;;;;;;4157935;28;20107;-62
2021/06/04 00:24:29;;;;;;;7.60;5.20;;;13.40;99.90;;;;;;4157996;28;20033;-63
2021/06/04 00:26:33;;;;;;;8.70;5.40;;;13.30;99.90;;;;;;4157482;28;20615;-63
2021/06/04 00:28:34;;;;;;;8.60;4.77;;;13.30;99.90;;;;;;4157403;28;20099;-64
2021/06/04 00:30:37;;;;;;;10.73;5.43;;;13.20;99.90;;;;;;4139696;28;20479;-68
2021/06/04 00:32:38;;;;;;;12.83;5.40;;;13.20;99.90;;;;;;4157911;28;20037;-65
2021/06/04 00:34:41;;;;;;;6.13;5.10;;;13.20;99.90;;;;;;4157452;28;20548;-67
2021/06/04 00:36:43;;;;;;;7.53;4.50;;;13.10;99.90;;;;;;4157416;28;20451;-63
2021/06/04 00:38:45;;;;;;;11.50;5.40;;;13.10;99.90;;;;;;4157498;28;20033;-63
2021/06/04 00:40:51;;;;;;;11.17;4.83;;;13.00;99.90;;;;;;4157616;28;20441;-64
2021/06/04 00:42:52;;;;;;;8.83;5.07;;;13.00;99.90;;;;;;4156996;28;20073;-65
2021/06/04 00:44:56;;;;;;;9.13;5.73;;;12.90;99.90;;;;;;4155177;28;20053;-62
2021/06/04 00:46:58;;;;;;;8.47;4.63;;;12.90;99.90;;;;;;4156369;28;20037;-63
2021/06/04 00:48:59;;;;;;;8.23;4.80;;;12.90;99.90;;;;;;4157992;28;20029;-63
2021/06/04 00:51:07;;;;;;;8.03;4.73;;;12.90;99.90;;;;;;4157227;28;20485;-66
2021/06/04 00:53:09;;;;;;;7.43;5.07;;;12.90;99.90;;;;;;4156823;28;20045;-62
2021/06/04 00:55:14;;;;;;;10.07;4.77;;;12.90;99.90;;;;;;4157528;28;20029;-63
2021/06/04 00:57:16;;;;;;;7.33;5.03;;;12.90;99.90;;;;;;4157932;28;20091;-66
2021/06/04 00:59:26;;;;;;;11.10;5.00;;;12.90;99.90;;;;;;4157146;28;20477;-63
2021/06/04 01:01:31;;;;;;;8.75;5.05;;;12.90;99.90;;;;;;4140702;28;20096;-62
2021/06/04 01:03:35;;;;;;;13.87;5.43;;;12.90;99.90;;;;;;4156519;28;20440;-63
2021/06/04 01:05:38;;;;;;;8.37;4.80;;;12.90;99.90;;;;;;4156873;28;20038;-63
2021/06/04 01:07:56;;;;;;;8.30;5.00;;;12.90;99.90;;;;;;4156802;28;20033;-63
2021/06/04 01:10:25;;;;;;;10.27;4.93;;;12.80;99.90;;;;;;4152787;28;20038;-66
2021/06/04 01:12:48;;;;;;;9.70;4.93;;;12.70;99.90;;;;;;4156673;28;20477;-62
2021/06/04 01:15:13;;;;;;;11.43;5.70;;;12.70;99.90;;;;;;4157683;28;20105;-65
2021/06/04 01:17:44;;;;;;;10.20;5.47;;;12.70;99.90;;;;;;4156736;28;20078;-62
2021/06/04 01:19:52;;;;;;;8.00;4.70;;;12.60;99.90;;;;;;4110946;28;20041;-63
2021/06/04 01:21:59;;;;;;;13.93;5.13;;;12.60;99.90;;;;;;4156803;28;20103;-65
2021/06/04 01:24:09;;;;;;;8.80;5.17;;;12.50;99.90;;;;;;4156429;28;20563;-64
2021/06/04 01:26:16;;;;;;;6.45;4.43;;;12.40;99.90;;;;;;4155858;28;20095;-66
2021/06/04 01:28:33;;;;;;;8.73;5.10;;;12.30;99.90;;;;;;4157361;28;20084;-64
2021/06/04 01:31:03;;;;;;;6.70;4.63;;;12.30;99.90;;;;;;4156496;28;20053;-65
2021/06/04 01:33:17;;;;;;;7.27;4.93;;;12.30;99.90;;;;;;4156454;28;20079;-63
2021/06/04 01:35:27;;;;;;;11.27;5.03;;;12.30;99.90;;;;;;4155479;28;20489;-62
2021/06/04 01:37:33;;;;;;;11.23;5.18;;;12.30;99.90;;;;;;4156731;28;20029;-63
2021/06/04 01:39:42;;;;;;;6.03;4.77;;;12.20;99.90;;;;;;4155752;28;20485;-62
2021/06/04 01:41:47;;;;;;;9.17;5.27;;;12.30;99.90;;;;;;4156601;28;20083;-62
2021/06/04 01:43:55;;;;;;;9.23;5.00;;;12.30;99.90;;;;;;4155633;28;20088;-67
2021/06/04 01:46:03;;;;;;;8.47;5.40;;;12.30;99.90;;;;;;4156462;28;20123;-62
2021/06/04 01:48:14;;;;;;;9.47;4.73;;;12.30;99.90;;;;;;4156309;28;20053;-69
2021/06/04 01:50:24;;;;;;;9.95;5.38;;;12.20;99.90;;;;;;4155594;28;20099;-62
2021/06/04 01:52:34;;;;;;;10.73;4.47;;;12.10;99.90;;;;;;4156166;28;20029;-63
2021/06/04 01:55:16;;;;;;;8.25;4.50;;;12.10;99.90;;;;;;4156485;28;20041;-63
2021/06/04 01:57:29;;;;;;;9.77;5.17;;;12.10;99.90;;;;;;4156904;28;20115;-62
2021/06/04 01:59:34;;;;;;;9.73;5.43;;;12.10;99.90;;;;;;4156196;28;20060;-61
2021/06/04 02:01:39;;;;;;;7.97;5.00;;;12.00;99.90;;;;;;4155708;28;20099;-64
2021/06/04 02:03:41;;;;;;;6.83;4.77;;;12.00;99.90;;;;;;4156140;28;20079;-65
2021/06/04 02:05:43;;;;;;;7.67;5.53;;;12.00;99.90;;;;;;4156258;28;20482;-62
2021/06/04 02:07:45;;;;;;;8.23;4.87;;;11.90;99.90;;;;;;4138588;28;20038;-64
2021/06/04 02:09:47;;;;;;;7.77;5.77;;;11.90;99.90;;;;;;4155761;28;20025;-64
2021/06/04 02:11:49;;;;;;;9.07;5.17;;;11.80;99.90;;;;;;4156337;28;20025;-66
2021/06/04 02:13:50;;;;;;;8.13;5.30;;;11.80;99.90;;;;;;4155165;28;20041;-65
2021/06/04 02:16:10;;;;;;;7.37;4.33;;;11.80;99.90;;;;;;4156664;28;20111;-64
2021/06/04 02:19:07;;;;;;;5.87;4.60;;;11.70;99.90;;;;;;4155172;28;20033;-65
2021/06/04 02:21:19;;;;;;;8.20;5.03;;;11.60;99.90;;;;;;4117952;28;20037;-62
2021/06/04 02:23:43;;;;;;;7.10;4.87;;;11.60;99.90;;;;;;4149019;28;20042;-64
2021/06/04 02:26:02;;;;;;;10.37;5.00;;;11.50;99.90;;;;;;4139475;28;20092;-63
2021/06/04 02:28:32;;;;;;;8.80;5.03;;;11.40;99.90;;;;;;4140104;28;20030;-60
2021/06/04 02:30:45;;;;;;;10.15;4.63;;;11.40;99.90;;;;;;4138848;28;20037;-62
2021/06/04 02:32:56;;;;;;;9.60;5.13;;;11.40;99.90;;;;;;4139245;28;20037;-62
2021/06/04 02:35:09;;;;;;;6.73;5.50;;;11.40;99.90;;;;;;4139282;28;20088;-63
2021/06/04 02:37:16;;;;;;;9.30;4.87;;;11.40;99.90;;;;;;4140170;28;20478;-63
2021/06/04 02:39:34;;;;;;;6.87;4.67;;;11.40;99.90;;;;;;4139001;28;20088;-62
2021/06/04 02:41:42;;;;;;;8.90;5.10;;;11.40;99.90;;;;;;4139948;28;20524;-62
2021/06/04 02:43:50;;;;;;;8.40;5.03;;;11.40;99.90;;;;;;4139248;28;20073;-64
2021/06/04 02:46:06;;;;;;;9.10;5.10;;;11.30;99.90;;;;;;4139711;28;20434;-68
2021/06/04 02:48:16;;;;;;;9.43;4.87;;;11.30;99.90;;;;;;4122117;28;20081;-66
2021/06/04 02:50:26;;;;;;;7.40;5.40;;;11.30;99.90;;;;;;4139729;28;20034;-64
2021/06/04 02:52:27;;;;;;;7.30;5.18;;;11.20;99.90;;;;;;4139343;28;20160;-63
2021/06/04 02:54:33;;;;;;;7.30;4.50;;;11.20;99.90;;;;;;4121783;28;20042;-66
2021/06/04 02:56:35;;;;;;;10.70;5.27;;;11.20;99.90;;;;;;4138331;28;20045;-64
2021/06/04 02:58:39;;;;;;;8.43;4.70;;;11.20;99.90;;;;;;4146632;28;20072;-65
2021/06/04 03:00:42;;;;;;;10.40;5.93;;;11.10;99.90;;;;;;4155012;28;20540;-65
2021/06/04 03:02:43;;;;;;;7.70;5.03;;;11.10;99.90;;;;;;4158042;28;20428;-67
2021/06/04 03:04:51;;;;;;;9.83;4.97;;;11.10;99.90;;;;;;4158161;28;20053;-64
2021/06/04 03:06:56;;;;;;;12.83;4.87;;;11.10;99.90;;;;;;4158385;28;20045;-67
2021/06/04 03:09:00;;;;;;;8.73;4.40;;;11.10;99.90;;;;;;4159360;28;20041;-65
2021/06/04 03:11:05;;;;;;;13.73;5.73;;;11.10;99.90;;;;;;4159707;28;20107;-62
2021/06/04 03:13:09;;;;;;;7.73;4.87;;;11.10;99.90;;;;;;4159159;28;20033;-62
2021/06/04 03:15:33;;;;;;;9.10;5.03;;;11.10;99.90;;;;;;4158855;28;20025;-63
2021/06/04 03:17:35;;;;;;;10.60;5.30;;;11.10;99.90;;;;;;4150152;28;20433;-62
2021/06/04 03:19:38;;;;;;;8.57;5.60;;;11.10;99.90;;;;;;4141558;28;20096;-63
2021/06/04 03:21:44;;;;;;;9.20;5.20;;;11.10;99.90;;;;;;4142484;28;20030;-63
2021/06/04 03:23:45;;;;;;;9.23;4.80;;;11.20;99.90;;;;;;4142609;28;20030;-65
2021/06/04 03:25:52;;;;;;;10.43;5.77;;;11.20;99.90;;;;;;4142352;28;20116;-64
2021/06/04 03:27:54;;;;;;;8.67;4.73;;;11.20;99.90;;;;;;4125211;28;20038;-66
2021/06/04 03:29:55;;;;;;;9.47;5.50;;;11.20;99.90;;;;;;4142410;28;21000;-65
2021/06/04 03:32:01;;;;;;;8.23;4.80;;;11.20;99.90;;;;;;4142156;28;20037;-62
2021/06/04 03:34:06;;;;;;;9.30;5.50;;;11.20;99.90;;;;;;4142186;28;20371;-62
2021/06/04 03:36:12;;;;;;;6.77;4.80;;;11.20;99.90;;;;;;4142338;28;20022;-66
2021/06/04 03:38:16;;;;;;;15.17;5.00;;;11.10;99.90;;;;;;4141579;28;20038;-65
2021/06/04 03:40:20;;;;;;;8.67;4.70;;;11.10;99.90;;;;;;4142113;28;20092;-62
2021/06/04 03:42:28;;;;;;;10.07;4.70;;;11.10;99.90;;;;;;4141671;28;20033;-67
2021/06/04 03:44:32;;;;;;;9.23;4.87;;;11.20;99.90;;;;;;4141556;28;20022;-62
2021/06/04 03:46:34;;;;;;;11.43;4.87;;;11.20;99.90;;;;;;4142431;28;20034;-62
2021/06/04 03:48:35;;;;;;;8.70;4.13;;;11.30;99.90;;;;;;4141250;28;20466;-64
2021/06/04 03:50:37;;;;;;;8.13;3.47;;;11.40;99.90;;;;;;4141932;28;20563;-64
2021/06/04 03:52:38;;;;;;;8.73;4.17;;;11.40;99.90;;;;;;4123130;28;20446;-62
2021/06/04 03:54:43;;;;;;;9.67;4.57;;;11.50;99.90;;;;;;4141421;28;20046;-62
2021/06/04 03:56:45;;;;;;;9.40;4.50;;;11.50;99.90;;;;;;4141533;28;20042;-67
2021/06/04 03:58:47;;;;;;;8.07;3.97;;;11.60;99.90;;;;;;4144325;28;20041;-62
2021/06/04 04:00:52;;;;;;;5.50;4.20;;;11.60;99.90;;;;;;4147012;28;20404;-61
2021/06/04 04:02:55;;;;;;;7.80;4.10;;;11.70;99.90;;;;;;4139907;28;20564;-62
2021/06/04 04:04:58;;;;;;;5.27;3.87;;;11.70;99.90;;;;;;4129776;28;20046;-63
2021/06/04 04:06:59;;;;;;;8.13;4.20;;;11.70;99.90;;;;;;4158097;28;20060;-69
2021/06/04 04:09:02;;;;;;;7.63;4.57;;;11.80;99.90;;;;;;4157786;28;20037;-64
2021/06/04 04:11:04;;;;;;;16.50;3.97;;;11.80;99.90;;;;;;4157682;28;20580;-63
2021/06/04 04:13:06;;;;;;;18.63;6.67;;;11.80;99.90;;;;;;4157173;28;20508;-67
2021/06/04 04:15:17;;;;;;;6.60;4.27;;;11.90;99.90;;;;;;4151108;28;20108;-62
2021/06/04 04:17:19;;;;;;;8.70;4.57;;;11.90;99.90;;;;;;4140418;28;20457;-63
2021/06/04 04:19:22;;;;;;;10.73;4.53;;;12.00;99.90;;;;;;4140802;28;20531;-63
2021/06/04 04:21:24;;;;;;;9.90;4.50;;;12.00;99.90;;;;;;4140331;28;20054;-64
2021/06/04 04:23:42;;;;;;;7.47;4.13;;;12.10;99.90;;;;;;4140954;28;20084;-63
2021/06/04 04:25:45;;;;;;;12.10;4.90;;;12.10;99.90;;;;;;4141373;28;20494;-69
2021/06/04 04:27:46;;;;;;;5.67;3.90;;;12.10;99.90;;;;;;4147958;28;20124;-65
2021/06/04 04:29:47;;;;;;;7.13;4.43;;;12.20;99.90;;;;;;4157916;28;20092;-66
2021/06/04 04:31:56;;;;;;;9.63;4.47;;;12.20;99.90;;;;;;4146991;28;20041;-62
2021/06/04 04:33:59;;;;;;;8.23;4.20;;;12.20;99.90;;;;;;4141244;28;20037;-63
2021/06/04 04:36:00;;;;;;;9.10;3.73;;;12.20;99.90;;;;;;4139897;28;20088;-62
2021/06/04 04:38:02;;;;;;;13.63;4.30;;;12.30;99.90;;;;;;4141121;28;20470;-61
2021/06/04 04:40:06;;;;;;;9.10;3.50;;;12.40;99.90;;;;;;4139059;28;20085;-66
2021/06/04 04:42:13;;;;;;;5.13;3.50;;;12.40;99.90;;;;;;4140540;28;20026;-65
2021/06/04 04:44:19;;;;;;;10.47;4.50;;;12.50;99.90;;;;;;4140227;28;20038;-64
2021/06/04 04:46:22;;;;;;;7.00;3.53;;;12.60;99.90;;;;;;4140147;28;20046;-62
2021/06/04 04:48:24;;;;;;;8.60;4.50;;;12.80;99.90;;;;;;4140494;28;20096;-63
2021/06/04 04:50:27;;;;;;;5.27;3.23;;;12.90;99.90;;;;;;4140019;28;20397;-62
2021/06/04 04:52:28;;;;;;;8.87;3.80;;;13.00;99.90;;;;;;4139363;28;20371;-65
2021/06/04 04:54:29;;;;;;;7.07;3.77;;;13.10;99.90;;;;;;4140416;28;20100;-62
2021/06/04 04:56:30;;;;;;;11.67;4.10;;;13.20;99.90;;;;;;4140180;28;20070;-70
2021/06/04 04:58:32;;;;;;;9.07;3.23;;;13.20;99.90;;;;;;4140957;28;20619;-65
2021/06/04 05:00:34;;;;;;;5.97;3.13;;;13.30;99.90;;;;;;4140039;28;20041;-62
2021/06/04 05:02:35;;;;;;;14.17;3.93;;;13.30;99.90;;;;;;4139936;28;20026;-63
2021/06/04 05:04:37;;;;;;;9.33;3.40;;;13.40;99.90;;;;;;4139279;28;20049;-63
2021/06/04 05:06:40;;;;;;;6.33;3.47;;;13.40;99.90;;;;;;4139839;28;20030;-63
2021/06/04 05:08:41;;;;;;;5.30;3.00;;;13.40;99.90;;;;;;4140611;28;20762;-65
2021/06/04 05:10:42;;;;;;;10.60;3.80;;;13.40;99.90;;;;;;4139825;28;21517;-67
2021/06/04 05:12:44;;;;;;;8.50;4.00;;;13.50;99.90;;;;;;4140475;28;20033;-64
2021/06/04 05:14:45;;;;;;;5.20;3.23;;;13.50;99.90;;;;;;4140220;28;20429;-67
2021/06/04 05:16:46;;;;;;;9.80;3.73;;;13.60;99.90;;;;;;4140388;28;20107;-61
2021/06/04 05:18:47;;;;;;;7.27;3.40;;;13.60;99.90;;;;;;4139648;28;20049;-64
2021/06/04 05:20:49;;;;;;;9.27;3.97;;;13.70;99.90;;;;;;4139096;28;20042;-64
2021/06/04 05:22:51;;;;;;;10.60;4.43;;;13.80;99.90;;;;;;4139737;28;20084;-64
2021/06/04 05:24:53;;;;;;;5.93;3.53;;;13.80;99.90;;;;;;4138733;28;20096;-65
2021/06/04 05:26:54;;;;;;;10.20;3.67;;;13.90;99.90;;;;;;4139920;28;20487;-62
2021/06/04 05:28:55;;;;;;;6.60;3.40;;;13.90;99.90;;;;;;4139696;28;20037;-63
2021/06/04 05:31:02;;;;;;;13.10;3.30;;;14.00;99.90;;;;;;4139670;28;20436;-63
2021/06/04 05:33:06;;;;;;;15.87;5.47;;;14.10;99.90;;;;;;4139774;28;20030;-64
2021/06/04 05:35:08;;;;;;;11.40;5.97;;;14.20;99.90;;;;;;4139973;28;20760;-66
2021/06/04 05:37:09;;;;;;;12.97;5.63;;;14.20;99.90;;;;;;4139565;28;20088;-63
2021/06/04 05:39:14;;;;;;;6.37;3.90;;;14.30;99.90;;;;;;4139870;28;20918;-63
2021/06/04 05:41:17;;;;;;;6.87;3.50;;;14.30;99.90;;;;;;4121775;28;20134;-62
2021/06/04 05:43:23;;;;;;;8.60;2.90;;;14.40;99.90;;;;;;4140261;28;20026;-64
2021/06/04 05:45:28;;;;;;;6.67;3.57;;;14.40;99.90;;;;;;4138597;28;20038;-62
2021/06/04 05:47:29;;;;;;;9.53;3.07;;;14.50;99.90;;;;;;4139802;28;20022;-65
2021/06/04 05:49:31;;;;;;;5.33;3.90;;;14.40;99.90;;;;;;4138428;28;20431;-64
2021/06/04 05:51:32;;;;;;;10.60;3.77;;;14.50;99.90;;;;;;4139627;28;20029;-63
2021/06/04 05:53:36;;;;;;;8.83;3.17;;;14.50;99.90;;;;;;4139429;28;20448;-62
2021/06/04 05:55:39;;;;;;;7.83;3.13;;;14.60;99.90;;;;;;4139399;28;20038;-62
2021/06/04 05:57:41;;;;;;;9.40;3.00;;;14.60;99.90;;;;;;4139731;28;20527;-66
2021/06/04 05:59:43;;;;;;;10.50;4.07;;;14.60;99.90;;;;;;4138849;28;20038;-64
2021/06/04 06:01:46;;;;;;;7.10;3.23;;;14.60;99.90;;;;;;4139736;28;20075;-63
2021/06/04 06:03:48;;;;;;;7.03;3.37;;;14.70;99.90;;;;;;4139300;28;20054;-63
2021/06/04 06:05:49;;;;;;;8.33;3.67;;;14.70;99.90;;;;;;4139695;28;20096;-64
2021/06/04 06:07:51;;;;;;;8.27;3.40;;;14.80;99.90;;;;;;4139404;28;20084;-64
2021/06/04 06:09:52;;;;;;;7.50;2.83;;;14.80;99.90;;;;;;4139310;28;20038;-63
2021/06/04 06:11:53;;;;;;;10.97;3.37;;;14.80;99.90;;;;;;4139173;28;20025;-64
2021/06/04 06:13:59;;;;;;;10.03;2.90;;;14.80;99.90;;;;;;4138752;28;20398;-62
2021/06/04 06:16:02;;;;;;;10.80;3.07;;;14.90;99.90;;;;;;4138745;28;20374;-64
2021/06/04 06:18:03;;;;;;;11.77;2.97;;;15.00;99.90;;;;;;4139180;28;20459;-63
2021/06/04 06:20:08;;;;;;;11.40;4.40;;;15.10;99.90;;;;;;4137767;28;20038;-63
2021/06/04 06:22:10;;;;;;;6.43;3.30;;;15.20;99.90;;;;;;4139256;28;20038;-63
2021/06/04 06:24:11;;;;;;;7.33;3.40;;;15.30;99.90;;;;;;4121159;28;20142;-63
2021/06/04 06:26:18;;;;;;;6.37;3.60;;;15.40;99.90;;;;;;4139065;28;20061;-63
2021/06/04 06:28:22;;;;;;;9.03;3.80;;;15.50;99.90;;;;;;4138372;28;20445;-67
2021/06/04 06:30:26;;;;;;;10.73;3.37;;;15.60;99.90;;;;;;4138662;28;20080;-63
2021/06/04 06:32:27;;;;;;;6.87;3.30;;;15.70;99.90;;;;;;4139512;28;20029;-62
2021/06/04 06:34:29;;;;;;;16.07;3.90;;;15.80;99.90;;;;;;4139053;28;20033;-62
2021/06/04 06:36:32;;;;;;;8.30;3.10;;;16.00;99.90;;;;;;4138680;28;20497;-64
2021/06/04 06:38:34;;;;;;;7.20;3.60;;;16.00;99.90;;;;;;4138527;28;20796;-64
2021/06/04 06:40:37;;;;;;;7.67;3.63;;;16.20;99.90;;;;;;4138500;28;20490;-65
2021/06/04 06:42:39;;;;;;;10.27;4.22;;;16.30;99.90;;;;;;4138672;28;20665;-62
2021/06/04 06:44:40;;;;;;;14.90;3.60;;;16.40;99.90;;;;;;4138614;28;20042;-63
2021/06/04 06:46:42;;;;;;;7.40;3.50;;;16.50;99.90;;;;;;4138257;28;20092;-65
2021/06/04 06:48:43;;;;;;;7.43;3.03;;;16.70;99.90;;;;;;4139047;28;20208;-69
2021/06/04 06:50:45;;;;;;;14.43;4.53;;;16.80;99.90;;;;;;4138816;28;20033;-65
2021/06/04 06:52:47;;;;;;;6.15;3.33;;;16.90;99.90;;;;;;4138408;28;20502;-62
2021/06/04 06:54:48;;;;;;;11.95;3.38;;;17.10;99.90;;;;;;4136708;28;20038;-63
2021/06/04 06:56:52;;;;;;;7.68;3.75;;;17.20;99.90;;;;;;4139470;28;20081;-64
2021/06/04 06:58:54;;;;;;;7.07;3.42;;;17.40;99.90;;;;;;4138569;28;20034;-62
2021/06/04 07:00:56;;;;;;;5.45;2.85;;;17.60;99.90;;;;;;4139146;28;20431;-65
2021/06/04 07:02:57;;;;;;;6.97;3.03;;;17.80;99.90;;;;;;4138401;28;20426;-67
2021/06/04 07:04:58;;;;;;;6.93;3.22;;;18.10;99.90;;;;;;4138942;28;20434;-63
2021/06/04 07:07:00;;;;;;;10.45;3.45;;;18.30;99.90;;;;;;4137916;28;20100;-62
2021/06/04 07:09:04;;;;;;;8.43;2.70;;;18.50;99.90;;;;;;4121454;28;20078;-66
2021/06/04 07:11:05;;;;;;;8.57;3.45;;;18.80;99.90;;;;;;4138277;28;20045;-66
2021/06/04 07:13:10;;;;;;;6.45;3.17;;;18.90;99.90;;;;;;4138839;28;20046;-66
2021/06/04 07:15:14;;;;;;;10.73;4.22;;;19.10;99.90;;;;;;4138504;28;20030;-62
2021/06/04 07:17:15;;;;;;;8.82;3.30;;;19.10;99.90;;;;;;4137564;28;20651;-68
2021/06/04 07:19:17;;;;;;;13.13;3.38;;;19.10;99.90;;;;;;4138832;28;20417;-65
2021/06/04 07:21:21;;;;;;;10.18;3.35;;;19.20;99.90;;;;;;4138663;28;20030;-62
2021/06/04 07:23:24;;;;;;;6.70;3.22;;;19.20;99.90;;;;;;4138876;28;20042;-62
2021/06/04 07:25:27;;;;;;;7.70;3.85;;;19.30;99.90;;;;;;4120536;28;20124;-64
2021/06/04 07:27:28;;;;;;;8.68;2.75;;;19.30;99.80;;;;;;4138500;28;20045;-63
2021/06/04 07:29:32;;;;;;;10.23;3.13;;;19.50;99.50;;;;;;4138431;28;20029;-64
2021/06/04 07:31:33;;;;;;;10.25;3.83;;;19.60;99.00;;;;;;4137917;28;20049;-63
2021/06/04 07:33:55;;;;;;;7.45;2.88;;;19.70;98.70;;;;;;4137973;28;20038;-62
2021/06/04 07:35:59;;;;;;;9.43;3.25;;;19.90;98.40;;;;;;4138346;28;20089;-64
2021/06/04 07:38:00;;;;;;;9.38;3.10;;;19.90;97.70;;;;;;4137554;28;20084;-68
2021/06/04 07:40:05;;;;;;;6.28;3.13;;;20.00;97.60;;;;;;4138688;28;20383;-66
2021/06/04 07:42:11;;;;;;;6.82;2.80;;;20.10;97.40;;;;;;4137968;28;20080;-66
2021/06/04 07:44:14;;;;;;;8.98;3.38;;;20.30;96.80;;;;;;4137715;28;20046;-66
2021/06/04 07:46:18;;;;;;;4.93;3.17;;;20.30;96.70;;;;;;4137246;28;20449;-65
2021/06/04 07:48:20;;;;;;;6.68;3.28;;;20.40;96.40;;;;;;4140227;28;20038;-65
2021/06/04 07:50:22;;;;;;;7.68;3.17;;;20.50;96.10;;;;;;4141215;28;20029;-62
2021/06/04 07:52:23;;;;;;;6.20;3.10;;;20.70;95.90;;;;;;4141916;28;20418;-65
2021/06/04 07:54:29;;;;;;;5.50;2.90;;;20.80;95.50;;;;;;4141748;28;20347;-62
2021/06/04 07:56:31;;;;;;;7.10;2.70;;;21.00;95.00;;;;;;4141699;28;20106;-62
2021/06/04 07:58:32;;;;;;;6.15;2.70;;;21.20;94.50;;;;;;4141482;28;20143;-64
2021/06/04 08:00:37;;;;;;;7.30;2.90;;;21.30;94.10;;;;;;4141495;28;20101;-61
2021/06/04 08:02:38;;;;;;;9.07;2.85;;;21.60;93.50;;;;;;4140666;28;20141;-63
2021/06/04 08:04:39;;;;;;;6.85;3.08;;;21.80;92.80;;;;;;4140774;28;20054;-68
2021/06/04 08:06:41;;;;;;;5.10;2.60;;;21.90;92.30;;;;;;4141027;28;20108;-63
2021/06/04 08:08:43;;;;;;;6.97;2.60;;;22.00;91.60;;;;;;4140840;28;20030;-62
2021/06/04 08:10:45;;;;;;;9.82;2.38;;;22.00;90.80;;;;;;4141284;28;20466;-65
2021/06/04 08:12:46;;;;;;;11.52;2.67;;;22.10;90.30;;;;;;4140229;28;20569;-63
2021/06/04 08:14:47;;;;;;;6.95;3.17;;;22.20;89.70;;;;;;4140988;28;20047;-63
2021/06/04 08:16:49;;;;;;;4.97;2.10;;;22.20;87.70;;;;;;4123024;28;20034;-64
2021/06/04 08:18:51;;;;;;;5.57;2.17;;;22.30;86.70;;;;;;4140044;28;20041;-64
2021/06/04 08:20:52;;;;;;;3.53;1.90;;;22.40;85.40;;;;;;4140039;28;20521;-63
2021/06/04 08:23:00;;;;;;;4.13;1.90;;;22.50;84.70;;;;;;4140358;28;20046;-64
2021/06/04 08:25:02;;;;;;;5.75;2.05;;;22.70;82.80;;;;;;4140985;28;20029;-63
2021/06/04 08:27:06;;;;;;;3.45;1.90;;;22.90;81.80;;;;;;4140757;28;20077;-62
2021/06/04 08:29:09;;;;;;;4.80;2.42;;;22.90;79.90;;;;;;4140348;28;20449;-64
2021/06/04 08:31:11;;;;;;;6.47;2.25;;;22.80;79.40;;;;;;4140965;28;20080;-62
2021/06/04 08:33:16;;;;;;;6.65;2.10;;;23.00;80.70;;;;;;4140694;28;20038;-65
2021/06/04 08:35:18;;;;;;;4.53;1.95;;;23.20;78.50;;;;;;4122694;28;20046;-65
2021/06/04 08:37:20;;;;;;;6.03;1.92;;;23.30;76.50;;;;;;4140362;28;20030;-64
2021/06/04 08:39:28;;;;;;;5.93;2.05;;;23.50;75.50;;;;;;4140958;28;20072;-64
2021/06/04 08:41:42;;;;;;;4.30;2.58;;;23.70;75.20;;;;;;4139916;28;20517;-65
2021/06/04 08:43:55;;;;;;;6.60;2.10;;;23.90;74.10;;;;;;4140442;28;20030;-62
2021/06/04 08:46:11;;;;;;;7.03;1.88;;;23.70;73.10;;;;;;4140332;28;20387;-62
2021/06/04 08:48:30;;;;;;;7.90;2.80;;;23.80;71.00;;;;;;4140224;28;20042;-62
2021/06/04 08:51:25;;;;;;;5.60;2.03;;;23.90;69.50;;;;;;4139609;28;20494;-61
2021/06/04 08:53:32;;;;;;;5.40;2.05;;;24.20;66.20;;;;;;4073348;29;20512;-65
2021/06/04 08:55:44;;;;;;;1.80;1.50;;;24.20;67.60;;;;;;4073542;29;20100;-63
2021/06/04 08:58:26;;;;;;;9.10;2.10;;;24.20;66.80;;;;;;4086985;28;20459;-63
2021/06/04 09:00:32;;;;;;;5.43;2.20;;;24.50;64.50;;;;;;4138916;28;20029;-65
2021/06/04 09:02:39;;;;;;;3.00;1.73;;;24.50;65.20;;;;;;4139999;28;20502;-62
2021/06/04 09:05:07;;;;;;;6.25;1.77;;;24.50;62.30;;;;;;4139513;28;20034;-62
2021/06/04 09:07:22;;;;;;;5.57;1.50;;;24.40;54.60;;;;;;4131625;28;20049;-63
2021/06/04 09:09:29;;;;;;;4.97;1.23;;;24.10;55.20;;;;;;4140250;28;20026;-63
2021/06/04 09:11:37;;;;;;;7.28;1.35;;;23.90;55.90;;;;;;4140539;28;20030;-65
2021/06/04 09:13:39;;;;;;;2.70;1.00;;;23.50;53.30;;;;;;4140121;28;20034;-69
2021/06/04 09:15:43;;;;;;;4.05;0.88;;;23.00;53.00;;;;;;4139628;28;20050;-67
2021/06/04 09:17:59;;;;;;;4.05;1.10;;;22.40;52.20;;;;;;4139848;28;20504;-63
2021/06/04 09:20:06;;;;;;;5.93;1.40;;;22.20;52.30;;;;;;4140317;28;20030;-63
2021/06/04 09:22:09;;;;;;;6.68;1.08;;;22.10;53.80;;;;;;4138901;28;20045;-62
2021/06/04 09:24:21;;;;;;;3.85;1.30;;;22.20;53.30;;;;;;4139724;28;20160;-66
2021/06/04 09:26:24;;;;;;;5.53;1.52;;;22.20;52.10;;;;;;4139884;28;20045;-65
2021/06/04 09:29:08;;;;;;;5.07;1.23;;;22.20;53.10;;;;;;4140193;28;20056;-65
2021/06/04 09:31:12;;;;;;;2.88;1.42;;;22.30;51.90;;;;;;4138129;28;20042;-63
2021/06/04 09:33:28;;;;;;;1.60;1.08;;;22.60;53.80;;;;;;4139758;28;20076;-64
2021/06/04 09:35:30;;;;;;;4.45;2.15;;;22.80;53.40;;;;;;4139591;28;20478;-63
2021/06/04 09:37:33;;;;;;;3.42;1.70;;;22.80;52.80;;;;;;4140050;28;20076;-62
2021/06/04 09:39:36;;;;;;;2.58;1.30;;;22.50;52.80;;;;;;4139197;28;20034;-63
2021/06/04 09:41:44;;;;;;;3.00;1.30;;;22.40;53.00;;;;;;4139711;28;20085;-63
2021/06/04 09:43:48;;;;;;;10.95;2.78;;;22.30;53.20;;;;;;4139285;28;20018;-63
2021/06/04 09:45:59;;;;;;;5.90;2.13;;;22.30;53.80;;;;;;4139844;28;20349;-62
2021/06/04 09:48:13;;;;;;;10.35;1.58;;;22.30;53.40;;;;;;4139326;28;20100;-61
2021/06/04 09:50:41;;;;;;;2.38;1.70;;;22.30;53.90;;;;;;4139274;28;20096;-62
2021/06/04 09:52:44;;;;;;;4.63;1.90;;;22.40;57.60;;;;;;4139229;28;20074;-63
2021/06/04 09:54:46;;;;;;;4.30;1.90;;;22.30;58.50;;;;;;4139908;28;20091;-62
2021/06/04 09:56:47;;;;;;;4.28;2.08;;;22.30;59.40;;;;;;4138792;28;20046;-64
2021/06/04 09:58:54;;;;;;;2.40;2.20;;;22.30;60.10;;;;;;4138841;28;20037;-66
2021/06/04 10:00:55;;;;;;;8.20;3.55;;;22.30;59.90;;;;;;4121632;28;20038;-63
2021/06/04 10:03:17;;;;;;;12.15;2.28;;;22.30;58.40;;;;;;4121544;28;20046;-64
2021/06/04 10:05:27;;;;;;;10.73;3.95;;;22.30;56.60;;;;;;4138469;28;20116;-64
2021/06/04 10:07:28;;;;;;;4.50;2.92;;;22.40;56.30;;;;;;4139806;28;20041;-64
2021/06/04 10:09:40;;;;;;;3.25;1.55;;;22.50;56.40;;;;;;4137923;28;20552;-65
2021/06/04 10:11:41;;;;;;;5.72;1.40;;;22.60;55.90;;;;;;4138874;28;20490;-63
2021/06/04 10:13:48;;;;;;;4.30;1.20;;;22.70;55.60;;;;;;4138806;28;20017;-63
2021/06/04 10:15:51;;;;;;;5.88;1.20;;;22.90;54.20;;;;;;4139393;28;20041;-62
2021/06/04 10:19:59;;;;;;;5.97;1.17;;;23.40;54.00;;;;;;4138814;28;20394;-63
2021/06/04 10:22:38;;;;;;;2.70;1.13;;;23.80;54.00;;;;;;4120261;28;20097;-64
2021/06/04 10:24:44;;;;;;;8.93;1.48;;;24.20;51.10;;;;;;4139160;28;20457;-63
2021/06/04 10:26:53;;;;;;;5.28;1.27;;;24.30;53.70;;;;;;4138672;28;20486;-63
2021/06/04 10:28:58;;;;;;;3.90;1.40;;;24.50;52.10;;;;;;4139077;28;20556;-64
2021/06/04 10:31:27;;;;;;;2.38;1.33;;;24.60;51.60;;;;;;4138845;28;20021;-65
2021/06/04 10:34:04;;;;;;;4.25;1.20;;;24.40;50.10;;;;;;4131581;28;20042;-63
2021/06/04 10:36:08;;;;;;;3.30;0.80;;;24.30;49.70;;;;;;4139103;28;20034;-65
2021/06/04 10:38:13;;;;;;;3.95;1.17;;;24.30;51.00;;;;;;4139240;28;20030;-64
2021/06/04 10:40:23;;;;;;;3.55;0.80;;;24.10;50.70;;;;;;4138642;28;20030;-65
2021/06/04 10:43:00;;;;;;;3.30;1.10;;;24.10;50.70;;;;;;4138952;28;20072;-64
2021/06/04 10:45:12;;;;;;;5.55;1.00;;;24.20;49.40;;;;;;4138812;28;20034;-64
2021/06/04 10:47:13;;;;;;;5.80;1.90;;;24.20;49.60;;;;;;4139158;28;20451;-66
2021/06/04 10:49:14;;;;;;;5.47;2.42;;;23.90;50.20;;;;;;4138944;28;20474;-63
2021/06/04 10:51:21;;;;;;;14.57;1.77;;;23.80;50.30;;;;;;4139336;28;20034;-62
2021/06/04 10:53:47;;;;;;;4.72;1.67;;;23.40;53.70;;;;;;4138924;28;20100;-62
2021/06/04 10:56:01;;;;;;;4.70;1.50;;;23.20;55.80;;;;;;4139297;28;20072;-63
2021/06/04 10:58:21;;;;;;;7.05;1.88;;;22.80;55.30;;;;;;4138942;28;20026;-66
2021/06/04 11:00:32;;;;;;;7.50;2.47;;;22.40;56.70;;;;;;4138734;28;20551;-66